sensor_id;sensor_type;location;lat;lon;timestamp;P1;durP1;ratioP1;P2;durP2;ratioP2
46122;SDS011;31856;-35.404;149.120;2022-12-18T03:23:25;0.65;;;0.20;;
46122;SDS011;31856;-35.404;149.120;2022-12-18T03:26:01;0.20;;;0.20;;
46122;SDS011;31856;-35.404;149.120;2022-12-18T03:28:35;0.50;;;0.30;;
46122;SDS011;31856;-35.404;149.120;2022-12-18T03:31:09;1.92;;;0.22;;
46122;SDS011;31856;-35.404;149.120;2022-12-18T03:33:43;1.50;;;0.20;;
46122;SDS011;31856;-35.404;149.120;2022-12-18T03:36:15;1.35;;;0.30;;
46122;SDS011;31856;-35.404;149.120;2022-12-18T03:42:14;0.20;;;0.20;;
46122;SDS011;31856;-35.404;149.120;2022-12-18T03:47:53;0.77;;;0.20;;
46122;SDS011;31856;-35.404;149.120;2022-12-18T03:51:13;1.10;;;0.20;;
46122;SDS011;31856;-35.404;149.120;2022-12-18T03:53:51;0.93;;;0.25;;
46122;SDS011;31856;-35.404;149.120;2022-12-18T03:56:35;0.40;;;0.30;;
46122;SDS011;31856;-35.404;149.120;2022-12-18T03:59:12;0.82;;;0.30;;
46122;SDS011;31856;-35.404;149.120;2022-12-18T04:01:48;0.70;;;0.60;;
46122;SDS011;31856;-35.404;149.120;2022-12-18T04:07:23;0.20;;;0.20;;
46122;SDS011;31856;-35.404;149.120;2022-12-18T04:09:56;0.20;;;0.20;;
46122;SDS011;31856;-35.404;149.120;2022-12-18T04:12:34;0.50;;;0.20;;
46122;SDS011;31856;-35.404;149.120;2022-12-18T04:15:06;0.32;;;0.28;;
46122;SDS011;31856;-35.404;149.120;2022-12-18T04:17:42;0.30;;;0.30;;
46122;SDS011;31856;-35.404;149.120;2022-12-18T04:20:16;0.85;;;0.20;;
46122;SDS011;31856;-35.404;149.120;2022-12-18T04:22:49;0.65;;;0.30;;
46122;SDS011;31856;-35.404;149.120;2022-12-18T04:25:19;0.20;;;0.20;;
46122;SDS011;31856;-35.404;149.120;2022-12-18T04:27:49;1.45;;;0.30;;
46122;SDS011;31856;-35.404;149.120;2022-12-18T04:30:22;0.43;;;0.30;;
46122;SDS011;31856;-35.404;149.120;2022-12-18T04:36:03;0.52;;;0.30;;
46122;SDS011;31856;-35.404;149.120;2022-12-18T04:38:35;1.40;;;0.30;;
46122;SDS011;31856;-35.404;149.120;2022-12-18T04:41:05;0.50;;;0.30;;
46122;SDS011;31856;-35.404;149.120;2022-12-18T04:43:35;0.20;;;0.20;;
46122;SDS011;31856;-35.404;149.120;2022-12-18T04:46:13;0.22;;;0.22;;
46122;SDS011;31856;-35.404;149.120;2022-12-18T04:52:25;0.20;;;0.20;;
46122;SDS011;31856;-35.404;149.120;2022-12-18T04:54:58;0.30;;;0.20;;
46122;SDS011;31856;-35.404;149.120;2022-12-18T04:57:29;0.20;;;0.20;;
46122;SDS011;31856;-35.404;149.120;2022-12-18T04:59:59;0.43;;;0.20;;
46122;SDS011;31856;-35.404;149.120;2022-12-18T05:02:32;0.28;;;0.20;;
46122;SDS011;31856;-35.404;149.120;2022-12-18T05:05:05;0.25;;;0.20;;
46122;SDS011;31856;-35.404;149.120;2022-12-18T05:07:39;0.63;;;0.30;;
46122;SDS011;31856;-35.404;149.120;2022-12-18T05:10:09;0.20;;;0.20;;
46122;SDS011;31856;-35.404;149.120;2022-12-18T05:16:11;0.20;;;0.20;;
46122;SDS011;31856;-35.404;149.120;2022-12-18T05:25:09;0.30;;;0.30;;
46122;SDS011;31856;-35.404;149.120;2022-12-18T05:27:42;1.55;;;0.30;;
46122;SDS011;31856;-35.404;149.120;2022-12-18T05:30:13;0.30;;;0.30;;
46122;SDS011;31856;-35.404;149.120;2022-12-18T05:32:43;0.30;;;0.30;;
46122;SDS011;31856;-35.404;149.120;2022-12-18T05:35:17;0.75;;;0.20;;
46122;SDS011;31856;-35.404;149.120;2022-12-18T05:37:51;0.30;;;0.30;;
46122;SDS011;31856;-35.404;149.120;2022-12-18T05:40:21;0.68;;;0.28;;
46122;SDS011;31856;-35.404;149.120;2022-12-18T05:42:51;2.17;;;0.47;;
46122;SDS011;31856;-35.404;149.120;2022-12-18T05:45:21;0.30;;;0.30;;
46122;SDS011;31856;-35.404;149.120;2022-12-18T05:47:51;0.30;;;0.30;;
46122;SDS011;31856;-35.404;149.120;2022-12-18T05:50:24;0.70;;;0.30;;
46122;SDS011;31856;-35.404;149.120;2022-12-18T05:52:54;1.58;;;0.40;;
46122;SDS011;31856;-35.404;149.120;2022-12-18T05:55:42;0.75;;;0.30;;
46122;SDS011;31856;-35.404;149.120;2022-12-18T05:58:13;0.20;;;0.20;;
46122;SDS011;31856;-35.404;149.120;2022-12-18T06:00:44;0.40;;;0.20;;
46122;SDS011;31856;-35.404;149.120;2022-12-18T06:03:15;0.30;;;0.22;;
46122;SDS011;31856;-35.404;149.120;2022-12-18T06:05:56;0.77;;;0.45;;
46122;SDS011;31856;-35.404;149.120;2022-12-18T06:08:29;0.43;;;0.30;;
46122;SDS011;31856;-35.404;149.120;2022-12-18T06:10:59;0.22;;;0.20;;
46122;SDS011;31856;-35.404;149.120;2022-12-18T06:13:31;0.43;;;0.30;;
46122;SDS011;31856;-35.404;149.120;2022-12-18T06:16:04;0.30;;;0.30;;
46122;SDS011;31856;-35.404;149.120;2022-12-18T06:18:40;1.02;;;0.40;;
46122;SDS011;31856;-35.404;149.120;2022-12-18T06:21:10;1.98;;;0.30;;
46122;SDS011;31856;-35.404;149.120;2022-12-18T06:23:44;0.25;;;0.20;;
46122;SDS011;31856;-35.404;149.120;2022-12-18T06:26:14;0.52;;;0.30;;
46122;SDS011;31856;-35.404;149.120;2022-12-18T06:29:11;1.35;;;0.20;;
46122;SDS011;31856;-35.404;149.120;2022-12-18T06:31:41;0.38;;;0.25;;
46122;SDS011;31856;-35.404;149.120;2022-12-18T06:34:14;0.20;;;0.20;;
46122;SDS011;31856;-35.404;149.120;2022-12-18T06:36:44;0.30;;;0.30;;
46122;SDS011;31856;-35.404;149.120;2022-12-18T06:39:14;0.50;;;0.30;;
46122;SDS011;31856;-35.404;149.120;2022-12-18T06:41:44;0.38;;;0.30;;
46122;SDS011;31856;-35.404;149.120;2022-12-18T06:44:14;1.30;;;0.30;;
46122;SDS011;31856;-35.404;149.120;2022-12-18T06:46:44;0.30;;;0.20;;
46122;SDS011;31856;-35.404;149.120;2022-12-18T06:49:15;0.20;;;0.20;;
46122;SDS011;31856;-35.404;149.120;2022-12-18T06:51:45;1.70;;;0.30;;
46122;SDS011;31856;-35.404;149.120;2022-12-18T06:54:16;0.55;;;0.30;;
46122;SDS011;31856;-35.404;149.120;2022-12-18T06:56:47;1.60;;;0.30;;
46122;SDS011;31856;-35.404;149.120;2022-12-18T06:59:17;0.55;;;0.30;;
46122;SDS011;31856;-35.404;149.120;2022-12-18T07:01:48;0.30;;;0.30;;
46122;SDS011;31856;-35.404;149.120;2022-12-18T07:04:19;2.08;;;0.40;;
46122;SDS011;31856;-35.404;149.120;2022-12-18T07:06:56;1.92;;;0.30;;
46122;SDS011;31856;-35.404;149.120;2022-12-18T07:09:38;0.68;;;0.30;;
46122;SDS011;31856;-35.404;149.120;2022-12-18T07:12:09;0.70;;;0.35;;
46122;SDS011;31856;-35.404;149.120;2022-12-18T07:14:42;1.02;;;0.30;;
46122;SDS011;31856;-35.404;149.120;2022-12-18T07:17:12;0.75;;;0.30;;
46122;SDS011;31856;-35.404;149.120;2022-12-18T07:19:42;0.30;;;0.30;;
46122;SDS011;31856;-35.404;149.120;2022-12-18T07:22:14;0.38;;;0.30;;
46122;SDS011;31856;-35.404;149.120;2022-12-18T07:24:45;0.70;;;0.30;;
46122;SDS011;31856;-35.404;149.120;2022-12-18T07:27:15;0.30;;;0.30;;
46122;SDS011;31856;-35.404;149.120;2022-12-18T07:29:45;1.60;;;0.30;;
46122;SDS011;31856;-35.404;149.120;2022-12-18T07:32:15;0.85;;;0.40;;
46122;SDS011;31856;-35.404;149.120;2022-12-18T07:34:45;0.60;;;0.30;;
46122;SDS011;31856;-35.404;149.120;2022-12-18T07:37:15;0.63;;;0.30;;
46122;SDS011;31856;-35.404;149.120;2022-12-18T07:39:46;1.05;;;0.30;;
46122;SDS011;31856;-35.404;149.120;2022-12-18T07:42:17;0.68;;;0.30;;
46122;SDS011;31856;-35.404;149.120;2022-12-18T07:45:00;0.68;;;0.32;;
46122;SDS011;31856;-35.404;149.120;2022-12-18T07:47:33;0.80;;;0.30;;
46122;SDS011;31856;-35.404;149.120;2022-12-18T07:50:04;0.30;;;0.30;;
46122;SDS011;31856;-35.404;149.120;2022-12-18T07:52:35;1.10;;;0.30;;
46122;SDS011;31856;-35.404;149.120;2022-12-18T07:55:05;1.08;;;0.30;;
46122;SDS011;31856;-35.404;149.120;2022-12-18T07:57:35;0.68;;;0.30;;
46122;SDS011;31856;-35.404;149.120;2022-12-18T08:00:17;0.63;;;0.30;;
46122;SDS011;31856;-35.404;149.120;2022-12-18T08:02:47;0.85;;;0.40;;
46122;SDS011;31856;-35.404;149.120;2022-12-18T08:05:17;0.38;;;0.30;;
46122;SDS011;31856;-35.404;149.120;2022-12-18T08:07:50;0.52;;;0.30;;
46122;SDS011;31856;-35.404;149.120;2022-12-18T08:10:20;1.08;;;0.30;;
46122;SDS011;31856;-35.404;149.120;2022-12-18T08:12:51;3.22;;;0.35;;
46122;SDS011;31856;-35.404;149.120;2022-12-18T08:15:27;0.40;;;0.40;;
46122;SDS011;31856;-35.404;149.120;2022-12-18T08:17:57;0.20;;;0.20;;
46122;SDS011;31856;-35.404;149.120;2022-12-18T08:20:27;0.80;;;0.40;;
46122;SDS011;31856;-35.404;149.120;2022-12-18T08:22:57;1.20;;;0.52;;
46122;SDS011;31856;-35.404;149.120;2022-12-18T08:25:27;1.85;;;0.55;;
46122;SDS011;31856;-35.404;149.120;2022-12-18T08:27:57;2.08;;;0.52;;
46122;SDS011;31856;-35.404;149.120;2022-12-18T08:30:27;3.17;;;0.50;;
46122;SDS011;31856;-35.404;149.120;2022-12-18T08:32:57;1.38;;;0.40;;
46122;SDS011;31856;-35.404;149.120;2022-12-18T08:35:28;1.45;;;0.73;;
46122;SDS011;31856;-35.404;149.120;2022-12-18T08:38:04;2.60;;;0.50;;
46122;SDS011;31856;-35.404;149.120;2022-12-18T08:40:35;1.17;;;0.40;;
46122;SDS011;31856;-35.404;149.120;2022-12-18T09:12:07;5.75;;;0.80;;
46122;SDS011;31856;-35.404;149.120;2022-12-18T09:14:38;2.17;;;0.60;;
46122;SDS011;31856;-35.404;149.120;2022-12-18T09:17:08;2.72;;;0.65;;
46122;SDS011;31856;-35.404;149.120;2022-12-18T09:19:38;3.60;;;0.70;;
46122;SDS011;31856;-35.404;149.120;2022-12-18T09:22:09;2.70;;;0.80;;
46122;SDS011;31856;-35.404;149.120;2022-12-18T09:24:41;1.08;;;0.60;;
46122;SDS011;31856;-35.404;149.120;2022-12-18T09:27:12;1.15;;;0.50;;
46122;SDS011;31856;-35.404;149.120;2022-12-18T09:33:12;3.10;;;1.10;;
46122;SDS011;31856;-35.404;149.120;2022-12-18T09:35:43;2.15;;;0.50;;
46122;SDS011;31856;-35.404;149.120;2022-12-18T09:38:15;3.03;;;0.57;;
46122;SDS011;31856;-35.404;149.120;2022-12-18T09:43:40;3.22;;;0.77;;
46122;SDS011;31856;-35.404;149.120;2022-12-18T09:46:15;12.25;;;2.00;;
46122;SDS011;31856;-35.404;149.120;2022-12-18T09:48:47;3.47;;;0.70;;
46122;SDS011;31856;-35.404;149.120;2022-12-18T09:54:35;2.55;;;0.70;;
46122;SDS011;31856;-35.404;149.120;2022-12-18T10:00:08;4.18;;;0.70;;
46122;SDS011;31856;-35.404;149.120;2022-12-18T10:03:22;2.92;;;0.70;;
46122;SDS011;31856;-35.404;149.120;2022-12-18T10:06:01;4.82;;;0.82;;
46122;SDS011;31856;-35.404;149.120;2022-12-18T10:11:34;1.80;;;0.60;;
46122;SDS011;31856;-35.404;149.120;2022-12-18T10:14:14;2.95;;;0.55;;
46122;SDS011;31856;-35.404;149.120;2022-12-18T10:19:41;4.30;;;1.00;;
46122;SDS011;31856;-35.404;149.120;2022-12-18T10:22:22;2.35;;;0.70;;
46122;SDS011;31856;-35.404;149.120;2022-12-18T10:27:44;2.92;;;0.70;;
46122;SDS011;31856;-35.404;149.120;2022-12-18T10:30:16;4.60;;;0.90;;
46122;SDS011;31856;-35.404;149.120;2022-12-18T10:32:46;3.17;;;0.80;;
46122;SDS011;31856;-35.404;149.120;2022-12-18T10:35:22;2.95;;;0.70;;
46122;SDS011;31856;-35.404;149.120;2022-12-18T10:38:07;4.97;;;0.85;;
46122;SDS011;31856;-35.404;149.120;2022-12-18T10:43:37;4.03;;;1.13;;
46122;SDS011;31856;-35.404;149.120;2022-12-18T10:51:22;3.15;;;1.00;;
46122;SDS011;31856;-35.404;149.120;2022-12-18T10:56:45;1.90;;;0.70;;
46122;SDS011;31856;-35.404;149.120;2022-12-18T10:59:16;3.53;;;0.80;;
46122;SDS011;31856;-35.404;149.120;2022-12-18T11:04:22;3.80;;;0.77;;
46122;SDS011;31856;-35.404;149.120;2022-12-18T11:15:16;4.28;;;0.90;;
46122;SDS011;31856;-35.404;149.120;2022-12-18T11:17:49;6.55;;;1.08;;
46122;SDS011;31856;-35.404;149.120;2022-12-18T11:20:26;4.25;;;0.90;;
46122;SDS011;31856;-35.404;149.120;2022-12-18T11:23:04;4.45;;;0.80;;
46122;SDS011;31856;-35.404;149.120;2022-12-18T11:25:34;3.83;;;0.82;;
46122;SDS011;31856;-35.404;149.120;2022-12-18T11:34:01;4.43;;;0.90;;
46122;SDS011;31856;-35.404;149.120;2022-12-18T11:36:52;3.47;;;0.90;;
46122;SDS011;31856;-35.404;149.120;2022-12-18T11:39:24;2.65;;;0.80;;
46122;SDS011;31856;-35.404;149.120;2022-12-18T11:42:41;3.97;;;1.10;;
46122;SDS011;31856;-35.404;149.120;2022-12-18T11:47:39;1.75;;;0.73;;
46122;SDS011;31856;-35.404;149.120;2022-12-18T11:50:25;4.47;;;0.80;;
46122;SDS011;31856;-35.404;149.120;2022-12-18T11:52:55;4.43;;;0.70;;
46122;SDS011;31856;-35.404;149.120;2022-12-18T11:58:19;2.78;;;0.60;;
46122;SDS011;31856;-35.404;149.120;2022-12-18T12:01:10;1.00;;;0.45;;
46122;SDS011;31856;-35.404;149.120;2022-12-18T12:04:08;0.95;;;0.40;;
46122;SDS011;31856;-35.404;149.120;2022-12-18T12:23:29;3.08;;;0.70;;
46122;SDS011;31856;-35.404;149.120;2022-12-18T12:28:46;3.08;;;0.70;;
46122;SDS011;31856;-35.404;149.120;2022-12-18T12:31:24;3.35;;;0.60;;
46122;SDS011;31856;-35.404;149.120;2022-12-18T12:34:01;4.40;;;0.60;;
46122;SDS011;31856;-35.404;149.120;2022-12-18T12:39:06;1.67;;;0.60;;
46122;SDS011;31856;-35.404;149.120;2022-12-18T12:41:38;3.60;;;0.70;;
46122;SDS011;31856;-35.404;149.120;2022-12-18T12:44:31;1.35;;;0.65;;
46122;SDS011;31856;-35.404;149.120;2022-12-18T12:47:05;3.30;;;0.75;;
46122;SDS011;31856;-35.404;149.120;2022-12-18T12:49:37;2.47;;;0.70;;
46122;SDS011;31856;-35.404;149.120;2022-12-18T12:52:10;4.13;;;0.65;;
46122;SDS011;31856;-35.404;149.120;2022-12-18T12:54:42;3.63;;;0.85;;
46122;SDS011;31856;-35.404;149.120;2022-12-18T12:57:16;2.90;;;0.77;;
46122;SDS011;31856;-35.404;149.120;2022-12-18T13:02:28;2.63;;;0.60;;
46122;SDS011;31856;-35.404;149.120;2022-12-18T13:07:47;4.47;;;1.13;;
46122;SDS011;31856;-35.404;149.120;2022-12-18T13:10:24;3.50;;;0.50;;
46122;SDS011;31856;-35.404;149.120;2022-12-18T13:12:56;2.65;;;0.68;;
46122;SDS011;31856;-35.404;149.120;2022-12-18T13:18:05;3.28;;;0.60;;
46122;SDS011;31856;-35.404;149.120;2022-12-18T13:20:36;3.90;;;0.68;;
46122;SDS011;31856;-35.404;149.120;2022-12-18T13:23:26;4.97;;;0.65;;
46122;SDS011;31856;-35.404;149.120;2022-12-18T13:26:28;4.05;;;0.52;;
46122;SDS011;31856;-35.404;149.120;2022-12-18T13:28:55;1.77;;;0.63;;
46122;SDS011;31856;-35.404;149.120;2022-12-18T13:37:44;3.72;;;0.70;;
46122;SDS011;31856;-35.404;149.120;2022-12-18T13:39:48;2.08;;;0.60;;
46122;SDS011;31856;-35.404;149.120;2022-12-18T13:47:56;3.67;;;0.93;;
46122;SDS011;31856;-35.404;149.120;2022-12-18T13:50:26;1.88;;;0.70;;
46122;SDS011;31856;-35.404;149.120;2022-12-18T13:53:02;6.45;;;0.95;;
46122;SDS011;31856;-35.404;149.120;2022-12-18T13:55:34;2.20;;;0.60;;
46122;SDS011;31856;-35.404;149.120;2022-12-18T14:53:39;2.03;;;0.80;;
46122;SDS011;31856;-35.404;149.120;2022-12-18T14:56:41;3.63;;;0.60;;
46122;SDS011;31856;-35.404;149.120;2022-12-18T14:59:30;3.42;;;0.90;;
46122;SDS011;31856;-35.404;149.120;2022-12-18T15:04:34;5.18;;;0.88;;
46122;SDS011;31856;-35.404;149.120;2022-12-18T15:09:44;4.72;;;0.90;;
46122;SDS011;31856;-35.404;149.120;2022-12-18T15:12:37;4.28;;;1.33;;
46122;SDS011;31856;-35.404;149.120;2022-12-18T15:17:58;3.10;;;0.77;;
46122;SDS011;31856;-35.404;149.120;2022-12-18T15:20:33;4.95;;;0.93;;
46122;SDS011;31856;-35.404;149.120;2022-12-18T15:23:03;3.95;;;0.70;;
46122;SDS011;31856;-35.404;149.120;2022-12-18T15:25:36;3.92;;;0.75;;
46122;SDS011;31856;-35.404;149.120;2022-12-18T15:28:23;3.67;;;0.88;;
46122;SDS011;31856;-35.404;149.120;2022-12-18T15:31:01;3.65;;;1.02;;
46122;SDS011;31856;-35.404;149.120;2022-12-18T15:36:11;3.03;;;0.60;;
46122;SDS011;31856;-35.404;149.120;2022-12-18T15:38:47;7.07;;;0.98;;
46122;SDS011;31856;-35.404;149.120;2022-12-18T15:41:17;3.03;;;1.20;;
46122;SDS011;31856;-35.404;149.120;2022-12-18T15:43:51;5.07;;;0.70;;
46122;SDS011;31856;-35.404;149.120;2022-12-18T15:46:22;4.80;;;0.88;;
46122;SDS011;31856;-35.404;149.120;2022-12-18T15:48:54;4.13;;;1.00;;
46122;SDS011;31856;-35.404;149.120;2022-12-18T15:53:58;3.03;;;0.80;;
46122;SDS011;31856;-35.404;149.120;2022-12-18T15:56:29;5.03;;;0.90;;
46122;SDS011;31856;-35.404;149.120;2022-12-18T15:59:18;4.90;;;0.90;;
46122;SDS011;31856;-35.404;149.120;2022-12-18T16:01:49;3.63;;;1.00;;
46122;SDS011;31856;-35.404;149.120;2022-12-18T16:04:23;8.95;;;1.20;;
46122;SDS011;31856;-35.404;149.120;2022-12-18T16:06:53;5.28;;;0.70;;
46122;SDS011;31856;-35.404;149.120;2022-12-18T16:09:40;2.83;;;0.93;;
46122;SDS011;31856;-35.404;149.120;2022-12-18T16:12:15;5.70;;;1.20;;
46122;SDS011;31856;-35.404;149.120;2022-12-18T16:14:46;2.55;;;0.77;;
46122;SDS011;31856;-35.404;149.120;2022-12-18T16:17:17;4.55;;;0.90;;
46122;SDS011;31856;-35.404;149.120;2022-12-18T16:19:48;4.18;;;1.10;;
46122;SDS011;31856;-35.404;149.120;2022-12-18T16:22:19;4.78;;;0.82;;
46122;SDS011;31856;-35.404;149.120;2022-12-18T16:24:51;5.18;;;0.98;;
46122;SDS011;31856;-35.404;149.120;2022-12-18T16:27:21;4.65;;;0.80;;
46122;SDS011;31856;-35.404;149.120;2022-12-18T16:29:52;6.03;;;0.98;;
46122;SDS011;31856;-35.404;149.120;2022-12-18T16:32:23;3.55;;;1.02;;
46122;SDS011;31856;-35.404;149.120;2022-12-18T16:34:53;5.25;;;0.95;;
46122;SDS011;31856;-35.404;149.120;2022-12-18T16:37:29;4.10;;;0.88;;
46122;SDS011;31856;-35.404;149.120;2022-12-18T16:39:59;5.97;;;1.10;;
46122;SDS011;31856;-35.404;149.120;2022-12-18T16:42:31;3.28;;;1.20;;
46122;SDS011;31856;-35.404;149.120;2022-12-18T16:45:03;7.60;;;1.30;;
46122;SDS011;31856;-35.404;149.120;2022-12-18T16:47:34;8.27;;;2.08;;
46122;SDS011;31856;-35.404;149.120;2022-12-18T16:50:04;6.57;;;1.00;;
46122;SDS011;31856;-35.404;149.120;2022-12-18T16:52:35;3.10;;;0.77;;
46122;SDS011;31856;-35.404;149.120;2022-12-18T16:55:10;5.68;;;1.10;;
46122;SDS011;31856;-35.404;149.120;2022-12-18T16:57:54;6.32;;;1.10;;
46122;SDS011;31856;-35.404;149.120;2022-12-18T17:00:24;6.47;;;1.05;;
46122;SDS011;31856;-35.404;149.120;2022-12-18T17:02:54;5.95;;;0.80;;
46122;SDS011;31856;-35.404;149.120;2022-12-18T17:05:25;4.50;;;1.10;;
46122;SDS011;31856;-35.404;149.120;2022-12-18T17:07:55;4.18;;;0.80;;
46122;SDS011;31856;-35.404;149.120;2022-12-18T17:10:25;8.40;;;1.30;;
46122;SDS011;31856;-35.404;149.120;2022-12-18T17:12:55;4.80;;;0.90;;
46122;SDS011;31856;-35.404;149.120;2022-12-18T17:15:25;7.72;;;1.33;;
46122;SDS011;31856;-35.404;149.120;2022-12-18T17:17:55;3.72;;;1.10;;
46122;SDS011;31856;-35.404;149.120;2022-12-18T17:20:25;11.40;;;1.30;;
46122;SDS011;31856;-35.404;149.120;2022-12-18T17:22:58;3.50;;;1.20;;
46122;SDS011;31856;-35.404;149.120;2022-12-18T17:25:29;6.00;;;1.08;;
46122;SDS011;31856;-35.404;149.120;2022-12-18T17:27:59;4.95;;;1.25;;
46122;SDS011;31856;-35.404;149.120;2022-12-18T17:30:30;8.27;;;1.20;;
46122;SDS011;31856;-35.404;149.120;2022-12-18T17:33:00;6.07;;;1.10;;
46122;SDS011;31856;-35.404;149.120;2022-12-18T17:35:30;4.70;;;1.00;;
46122;SDS011;31856;-35.404;149.120;2022-12-18T17:38:00;5.20;;;1.15;;
46122;SDS011;31856;-35.404;149.120;2022-12-18T17:40:33;6.15;;;1.05;;
46122;SDS011;31856;-35.404;149.120;2022-12-18T17:43:09;4.07;;;1.13;;
46122;SDS011;31856;-35.404;149.120;2022-12-18T17:45:39;6.30;;;0.90;;
46122;SDS011;31856;-35.404;149.120;2022-12-18T17:48:10;5.30;;;1.08;;
46122;SDS011;31856;-35.404;149.120;2022-12-18T17:50:40;6.10;;;1.50;;
46122;SDS011;31856;-35.404;149.120;2022-12-18T17:53:11;7.35;;;1.52;;
46122;SDS011;31856;-35.404;149.120;2022-12-18T17:55:41;7.00;;;1.05;;
46122;SDS011;31856;-35.404;149.120;2022-12-18T17:58:11;5.65;;;1.13;;
46122;SDS011;31856;-35.404;149.120;2022-12-18T18:00:41;7.13;;;1.20;;
46122;SDS011;31856;-35.404;149.120;2022-12-18T18:03:11;8.52;;;1.30;;
46122;SDS011;31856;-35.404;149.120;2022-12-18T18:05:44;6.60;;;1.33;;
46122;SDS011;31856;-35.404;149.120;2022-12-18T18:08:14;10.50;;;1.27;;
46122;SDS011;31856;-35.404;149.120;2022-12-18T18:10:44;5.07;;;1.20;;
46122;SDS011;31856;-35.404;149.120;2022-12-18T18:13:17;14.10;;;1.30;;
46122;SDS011;31856;-35.404;149.120;2022-12-18T18:16:12;5.23;;;1.13;;
46122;SDS011;31856;-35.404;149.120;2022-12-18T18:18:42;4.60;;;0.98;;
46122;SDS011;31856;-35.404;149.120;2022-12-18T18:21:13;5.03;;;1.50;;
46122;SDS011;31856;-35.404;149.120;2022-12-18T18:23:45;8.93;;;2.25;;
46122;SDS011;31856;-35.404;149.120;2022-12-18T18:26:18;4.60;;;0.88;;
46122;SDS011;31856;-35.404;149.120;2022-12-18T18:28:52;9.20;;;1.15;;
46122;SDS011;31856;-35.404;149.120;2022-12-18T18:31:23;5.28;;;2.03;;
46122;SDS011;31856;-35.404;149.120;2022-12-18T18:33:53;4.93;;;1.10;;
46122;SDS011;31856;-35.404;149.120;2022-12-18T18:36:23;7.53;;;1.42;;
46122;SDS011;31856;-35.404;149.120;2022-12-18T18:38:57;5.00;;;1.20;;
46122;SDS011;31856;-35.404;149.120;2022-12-18T18:41:27;8.02;;;1.65;;
46122;SDS011;31856;-35.404;149.120;2022-12-18T18:43:58;3.55;;;1.13;;
46122;SDS011;31856;-35.404;149.120;2022-12-18T18:46:28;5.85;;;1.02;;
46122;SDS011;31856;-35.404;149.120;2022-12-18T18:48:58;7.78;;;1.80;;
46122;SDS011;31856;-35.404;149.120;2022-12-18T18:51:28;6.80;;;1.00;;
46122;SDS011;31856;-35.404;149.120;2022-12-18T18:54:01;6.07;;;1.27;;
46122;SDS011;31856;-35.404;149.120;2022-12-18T18:56:31;7.88;;;1.20;;
46122;SDS011;31856;-35.404;149.120;2022-12-18T18:59:22;6.75;;;1.40;;
46122;SDS011;31856;-35.404;149.120;2022-12-18T19:01:58;7.73;;;0.97;;
46122;SDS011;31856;-35.404;149.120;2022-12-18T19:32:49;5.15;;;0.93;;
46122;SDS011;31856;-35.404;149.120;2022-12-18T19:35:20;6.38;;;0.98;;
46122;SDS011;31856;-35.404;149.120;2022-12-18T19:37:50;9.05;;;1.33;;
46122;SDS011;31856;-35.404;149.120;2022-12-18T19:40:20;5.70;;;1.02;;
46122;SDS011;31856;-35.404;149.120;2022-12-18T19:42:51;8.75;;;1.00;;
46122;SDS011;31856;-35.404;149.120;2022-12-18T19:45:22;6.70;;;1.33;;
46122;SDS011;31856;-35.404;149.120;2022-12-18T19:47:53;8.18;;;1.30;;
46122;SDS011;31856;-35.404;149.120;2022-12-18T19:50:29;8.55;;;1.02;;
46122;SDS011;31856;-35.404;149.120;2022-12-18T19:53:00;9.13;;;1.30;;
46122;SDS011;31856;-35.404;149.120;2022-12-18T19:55:38;11.38;;;1.67;;
46122;SDS011;31856;-35.404;149.120;2022-12-18T19:58:10;8.60;;;1.23;;
46122;SDS011;31856;-35.404;149.120;2022-12-18T20:00:41;2.72;;;0.95;;
46122;SDS011;31856;-35.404;149.120;2022-12-18T20:03:12;10.23;;;1.27;;
46122;SDS011;31856;-35.404;149.120;2022-12-18T20:05:53;5.75;;;1.30;;
46122;SDS011;31856;-35.404;149.120;2022-12-18T20:08:23;9.40;;;1.50;;
46122;SDS011;31856;-35.404;149.120;2022-12-18T20:10:53;7.00;;;1.38;;
46122;SDS011;31856;-35.404;149.120;2022-12-18T20:13:24;9.93;;;1.30;;
46122;SDS011;31856;-35.404;149.120;2022-12-18T20:15:55;6.28;;;1.10;;
46122;SDS011;31856;-35.404;149.120;2022-12-18T20:18:25;8.48;;;1.13;;
46122;SDS011;31856;-35.404;149.120;2022-12-18T20:20:57;6.65;;;1.60;;
46122;SDS011;31856;-35.404;149.120;2022-12-18T20:23:29;7.45;;;1.73;;
46122;SDS011;31856;-35.404;149.120;2022-12-18T20:26:02;10.48;;;2.70;;
46122;SDS011;31856;-35.404;149.120;2022-12-18T20:28:34;7.63;;;1.90;;
46122;SDS011;31856;-35.404;149.120;2022-12-18T20:31:06;8.70;;;2.00;;
46122;SDS011;31856;-35.404;149.120;2022-12-18T20:33:40;10.80;;;1.38;;
46122;SDS011;31856;-35.404;149.120;2022-12-18T20:36:15;8.43;;;1.23;;
46122;SDS011;31856;-35.404;149.120;2022-12-18T21:40:41;8.80;;;1.80;;
46122;SDS011;31856;-35.404;149.120;2022-12-18T21:43:12;3.83;;;1.30;;
46122;SDS011;31856;-35.404;149.120;2022-12-18T21:46:00;7.63;;;1.60;;
46122;SDS011;31856;-35.404;149.120;2022-12-18T21:58:54;5.03;;;1.20;;
46122;SDS011;31856;-35.404;149.120;2022-12-18T23:42:09;8.50;;;2.03;;
46122;SDS011;31856;-35.404;149.120;2022-12-18T23:44:40;6.72;;;1.38;;
46122;SDS011;31856;-35.404;149.120;2022-12-18T23:47:10;8.90;;;1.60;;
46122;SDS011;31856;-35.404;149.120;2022-12-18T23:49:40;4.00;;;1.10;;
46122;SDS011;31856;-35.404;149.120;2022-12-18T23:52:10;5.45;;;1.20;;
46122;SDS011;31856;-35.404;149.120;2022-12-18T23:54:41;8.23;;;1.52;;
46122;SDS011;31856;-35.404;149.120;2022-12-18T23:57:11;3.60;;;1.17;;
46122;SDS011;31856;-35.404;149.120;2022-12-18T23:59:41;7.22;;;1.23;;
